createdAt,value
2023-01-13T00:02:13.512Z,4.77
2023-01-13T00:07:16.564Z,4.81
2023-01-13T00:12:19.605Z,4.85
2023-01-13T00:17:23.283Z,4.80
2023-01-13T00:22:26.331Z,4.78
2023-01-13T00:27:29.443Z,4.77
2023-01-13T00:32:32.811Z,4.80
2023-01-13T00:37:38.217Z,4.86
2023-01-13T00:43:00.034Z,4.83
2023-01-13T00:48:03.330Z,4.79
2023-01-13T00:53:06.354Z,4.76
2023-01-13T00:58:09.366Z,4.80
2023-01-13T01:03:12.516Z,4.85
2023-01-13T01:08:15.563Z,4.88
2023-01-13T01:13:18.564Z,4.88
2023-01-13T01:18:21.598Z,4.90
2023-01-13T01:23:24.626Z,4.94
2023-01-13T01:28:27.677Z,5.00
2023-01-13T01:33:30.724Z,5.01
2023-01-13T01:38:34.003Z,5.04
2023-01-13T01:44:00.307Z,5.05
2023-01-13T01:49:24.020Z,5.03
2023-01-13T01:54:42.696Z,4.94
2023-01-13T01:59:46.097Z,4.92
2023-01-13T02:04:53.221Z,4.83
2023-01-13T02:10:00.053Z,4.78
2023-01-13T02:15:12.557Z,4.79
2023-01-13T02:20:56.066Z,4.77
2023-01-13T02:26:08.127Z,4.68
2023-01-13T02:31:33.799Z,4.62
2023-01-13T02:36:52.224Z,4.61
2023-01-13T02:42:44.152Z,4.50
2023-01-13T02:47:50.933Z,4.28
2023-01-13T02:53:02.523Z,4.21
2023-01-13T02:58:10.029Z,4.20
2023-01-13T03:03:14.101Z,4.20
2023-01-13T03:08:42.930Z,4.22
2023-01-13T03:14:04.264Z,4.38
2023-01-13T03:19:18.107Z,4.59
2023-01-13T03:24:34.473Z,4.79
2023-01-13T03:29:42.950Z,4.93
2023-01-13T03:35:16.839Z,5.09
2023-01-13T03:40:28.971Z,5.23
2023-01-13T03:45:35.072Z,5.30
2023-01-13T03:50:58.052Z,5.31
2023-01-13T03:56:30.145Z,5.37
2023-01-13T04:01:49.542Z,5.45
2023-01-13T04:07:05.405Z,5.49
2023-01-13T04:12:19.222Z,5.49
2023-01-13T04:17:24.728Z,5.50
2023-01-13T04:22:27.646Z,5.51
2023-01-13T04:27:30.782Z,5.54
2023-01-13T04:32:33.712Z,5.57
2023-01-13T04:37:36.717Z,5.55
2023-01-13T04:42:39.638Z,5.50
2023-01-13T04:47:42.602Z,5.47
2023-01-13T04:52:50.108Z,5.48
2023-01-13T04:57:53.183Z,5.44
2023-01-13T05:02:56.149Z,5.46
2023-01-13T05:07:59.577Z,5.49
2023-01-13T05:13:20.991Z,5.54
2023-01-13T05:18:24.014Z,5.62
2023-01-13T05:23:45.940Z,5.64
2023-01-13T05:28:48.867Z,5.69
2023-01-13T05:33:51.789Z,5.72
2023-01-13T05:38:54.780Z,5.79
2023-01-13T05:43:57.774Z,5.86
2023-01-13T05:49:01.750Z,5.89
2023-01-13T05:54:04.774Z,5.93
2023-01-13T05:59:07.729Z,6.00
2023-01-13T06:04:10.730Z,6.03
2023-01-13T06:09:13.723Z,6.04
2023-01-13T06:14:16.786Z,6.07
2023-01-13T06:19:19.728Z,6.12
2023-01-13T06:24:23.121Z,6.18
2023-01-13T06:29:26.064Z,6.18
2023-01-13T06:34:29.467Z,6.16
2023-01-13T06:39:35.963Z,6.15
2023-01-13T06:44:39.799Z,6.19
2023-01-13T06:49:42.593Z,6.24
2023-01-13T06:54:45.501Z,6.24
2023-01-13T06:59:49.984Z,6.26
2023-01-13T07:04:53.479Z,6.32
2023-01-13T07:09:56.414Z,6.36
2023-01-13T07:15:17.649Z,6.37
2023-01-13T07:20:20.582Z,6.33
2023-01-13T07:25:24.250Z,6.33
2023-01-13T07:30:27.247Z,6.33
2023-01-13T07:35:30.178Z,6.28
2023-01-13T07:40:33.138Z,6.26
2023-01-13T07:45:36.092Z,6.28
2023-01-13T07:50:39.050Z,6.38
2023-01-13T07:55:45.303Z,6.43
2023-01-13T08:00:48.246Z,6.43
2023-01-13T08:05:52.232Z,6.42
2023-01-13T08:10:58.433Z,6.46
2023-01-13T08:16:06.921Z,6.48
2023-01-13T08:21:15.111Z,6.51
2023-01-13T08:26:18.627Z,6.46
2023-01-13T08:31:21.837Z,6.50
2023-01-13T08:36:25.671Z,6.51
2023-01-13T08:41:47.137Z,6.45
2023-01-13T08:46:50.148Z,6.44
2023-01-13T08:51:53.371Z,6.50
2023-01-13T08:56:56.419Z,6.53
2023-01-13T09:01:59.908Z,6.51
2023-01-13T09:07:03.073Z,6.53
2023-01-13T09:12:25.424Z,6.55
2023-01-13T09:17:29.062Z,6.60
2023-01-13T09:22:32.135Z,6.64
2023-01-13T09:27:35.133Z,6.66
2023-01-13T09:32:38.557Z,6.72
2023-01-13T09:37:41.609Z,6.77
2023-01-13T09:43:54.668Z,6.79
2023-01-13T09:48:58.769Z,6.80
2023-01-13T09:54:26.125Z,6.83
2023-01-13T09:59:36.480Z,6.88
2023-01-13T10:04:39.638Z,6.87
2023-01-13T10:09:56.484Z,6.89
2023-01-13T10:14:59.531Z,6.93
2023-01-13T10:20:29.936Z,6.90
2023-01-13T10:25:41.709Z,6.78
2023-01-13T10:30:47.910Z,6.75
2023-01-13T10:36:13.415Z,6.80
2023-01-13T10:41:16.318Z,6.83
2023-01-13T10:46:20.536Z,6.83
2023-01-13T10:51:30.538Z,6.85
2023-01-13T10:56:34.495Z,6.88
2023-01-13T11:01:37.793Z,6.92
2023-01-13T11:06:47.054Z,6.86
2023-01-13T11:11:56.039Z,6.83
2023-01-13T11:17:31.011Z,6.84
2023-01-13T11:22:55.948Z,6.84
2023-01-13T11:28:32.905Z,6.95
2023-01-13T11:33:48.402Z,7.00
2023-01-13T11:39:11.167Z,7.11
2023-01-13T11:44:39.038Z,7.22
2023-01-13T11:49:45.438Z,7.30
2023-01-13T11:55:58.468Z,7.32
2023-01-13T12:01:38.455Z,7.43
2023-01-13T12:06:41.990Z,7.44
2023-01-13T12:12:20.055Z,7.45
2023-01-13T12:18:01.617Z,7.56
2023-01-13T12:23:29.623Z,7.64
2023-01-13T12:29:02.295Z,7.71
2023-01-13T12:34:09.429Z,7.79
2023-01-13T12:39:35.077Z,7.83
2023-01-13T12:44:38.278Z,7.84
2023-01-13T12:49:45.954Z,7.84
2023-01-13T12:54:48.824Z,7.89
2023-01-13T13:00:03.716Z,7.91
2023-01-13T13:05:15.774Z,7.91
2023-01-13T13:10:33.958Z,7.92
2023-01-13T13:15:37.232Z,7.96
2023-01-13T13:21:09.869Z,7.97
2023-01-13T13:26:21.667Z,7.98
2023-01-13T13:31:36.365Z,8.02
2023-01-13T13:37:14.366Z,8.05
2023-01-13T13:42:46.359Z,8.06
2023-01-13T13:47:49.360Z,8.04
2023-01-13T13:53:02.424Z,8.03
2023-01-13T13:58:06.189Z,8.02
2023-01-13T14:03:32.768Z,7.95
2023-01-13T14:08:46.667Z,7.89
2023-01-13T14:14:03.954Z,7.84
2023-01-13T14:19:28.653Z,7.79
2023-01-13T14:24:32.474Z,7.73
2023-01-13T14:29:35.619Z,7.73
2023-01-13T14:34:38.985Z,7.73
2023-01-13T14:39:41.918Z,7.70
2023-01-13T14:44:51.172Z,7.67
2023-01-13T14:50:01.148Z,7.71
2023-01-13T14:55:08.591Z,7.72
2023-01-13T15:00:14.354Z,7.63
2023-01-13T15:05:17.323Z,7.62
2023-01-13T15:10:24.216Z,7.67
2023-01-13T15:15:34.768Z,7.67
2023-01-13T15:20:39.960Z,7.63
2023-01-13T15:25:44.119Z,7.61
2023-01-13T15:30:49.719Z,7.64
2023-01-13T15:35:54.091Z,7.64
2023-01-13T15:40:57.042Z,7.63
2023-01-13T15:46:20.071Z,7.60
2023-01-13T15:51:23.416Z,7.61
2023-01-13T15:56:26.841Z,7.59
2023-01-13T16:01:29.856Z,7.56
2023-01-13T16:06:33.089Z,7.59
2023-01-13T16:11:36.056Z,7.56
2023-01-13T16:16:39.066Z,7.52
2023-01-13T16:21:42.021Z,7.53
2023-01-13T16:26:45.128Z,7.61
2023-01-13T16:31:48.108Z,7.57
2023-01-13T16:36:51.108Z,7.53
2023-01-13T16:41:54.229Z,7.51
2023-01-13T16:46:57.217Z,7.47
2023-01-13T16:52:00.151Z,7.43
2023-01-13T16:57:03.234Z,7.44
2023-01-13T17:02:15.521Z,7.48
2023-01-13T17:07:18.925Z,7.53
2023-01-13T17:12:21.890Z,7.52
2023-01-13T17:17:28.345Z,7.54
2023-01-13T17:22:31.422Z,7.54
2023-01-13T17:27:34.690Z,7.52
2023-01-13T17:32:37.657Z,7.49
2023-01-13T17:37:40.582Z,7.45
2023-01-13T17:42:43.501Z,7.44
2023-01-13T17:47:47.587Z,7.45
2023-01-13T17:52:50.696Z,7.44
2023-01-13T17:57:53.621Z,7.42
2023-01-13T18:02:56.652Z,7.42
2023-01-13T18:07:59.811Z,7.50
2023-01-13T18:13:03.666Z,7.55
2023-01-13T18:18:06.648Z,7.55
2023-01-13T18:23:40.209Z,7.54
2023-01-13T18:28:43.137Z,7.58
2023-01-13T18:33:46.192Z,7.58
2023-01-13T18:38:50.988Z,7.58
2023-01-13T18:43:53.936Z,7.60
2023-01-13T18:48:56.940Z,7.61
2023-01-13T18:54:01.044Z,7.63
2023-01-13T18:59:04.440Z,7.68
2023-01-13T19:04:15.320Z,7.70
2023-01-13T19:09:24.162Z,7.73
2023-01-13T19:14:42.138Z,7.71
2023-01-13T19:19:54.225Z,7.73
2023-01-13T19:24:58.506Z,7.79
2023-01-13T19:30:04.050Z,7.83
2023-01-13T19:35:07.616Z,7.83
2023-01-13T19:40:15.998Z,7.84
2023-01-13T19:45:28.333Z,7.86
2023-01-13T19:50:35.162Z,7.94
2023-01-13T19:55:43.187Z,8.01
2023-01-13T20:00:47.890Z,8.04
2023-01-13T20:05:54.609Z,8.05
2023-01-13T20:11:17.480Z,8.03
2023-01-13T20:16:20.418Z,8.04
2023-01-13T20:21:23.502Z,8.07
2023-01-13T20:26:26.736Z,8.13
2023-01-13T20:31:29.707Z,8.18
2023-01-13T20:36:37.365Z,8.17
2023-01-13T20:41:58.683Z,8.13
2023-01-13T20:47:02.918Z,8.16
2023-01-13T20:52:09.744Z,8.25
2023-01-13T20:57:13.033Z,8.20
2023-01-13T21:02:17.616Z,8.11
2023-01-13T21:07:20.638Z,8.01
2023-01-13T21:12:41.914Z,8.00
2023-01-13T21:18:05.191Z,8.06
2023-01-13T21:23:10.684Z,8.08
2023-01-13T21:28:14.117Z,8.19
2023-01-13T21:33:17.119Z,8.31
2023-01-13T21:38:20.119Z,8.35
2023-01-13T21:43:41.410Z,8.35
2023-01-13T21:48:44.365Z,8.39
2023-01-13T21:53:47.295Z,8.43
2023-01-13T21:58:52.052Z,8.42
2023-01-13T22:04:13.367Z,8.38
2023-01-13T22:09:16.350Z,8.37
2023-01-13T22:14:19.466Z,8.39
2023-01-13T22:19:22.460Z,8.39
2023-01-13T22:24:25.527Z,8.35
2023-01-13T22:29:28.468Z,8.35
2023-01-13T22:34:32.100Z,8.36
2023-01-13T22:39:35.144Z,8.37
2023-01-13T22:44:38.394Z,8.34
2023-01-13T22:49:43.200Z,8.34
2023-01-13T22:54:46.141Z,8.35
2023-01-13T22:59:49.113Z,8.35
2023-01-13T23:04:52.161Z,8.33
2023-01-13T23:09:55.172Z,8.35
2023-01-13T23:14:58.116Z,8.38
2023-01-13T23:20:01.064Z,8.40
2023-01-13T23:25:04.381Z,8.40
2023-01-13T23:30:10.506Z,8.36
2023-01-13T23:35:13.468Z,8.35
2023-01-13T23:40:16.489Z,8.36
2023-01-13T23:45:19.420Z,8.35
2023-01-13T23:50:22.373Z,8.31
2023-01-13T23:55:26.195Z,8.28
